sensor_id;sensor_type;location;lat;lon;timestamp;P1;durP1;ratioP1;P2;durP2;ratioP2
18752;SDS011;9505;50.882;5.350;2023-05-16T00:00:16;51.80;;;8.13;;
18752;SDS011;9505;50.882;5.350;2023-05-16T00:02:42;50.60;;;8.10;;
18752;SDS011;9505;50.882;5.350;2023-05-16T00:05:08;51.58;;;7.90;;
18752;SDS011;9505;50.882;5.350;2023-05-16T00:07:43;40.92;;;6.55;;
18752;SDS011;9505;50.882;5.350;2023-05-16T00:10:10;37.78;;;6.65;;
18752;SDS011;9505;50.882;5.350;2023-05-16T00:12:36;51.30;;;7.28;;
18752;SDS011;9505;50.882;5.350;2023-05-16T00:15:04;40.45;;;6.22;;
18752;SDS011;9505;50.882;5.350;2023-05-16T00:17:32;40.58;;;6.65;;
18752;SDS011;9505;50.882;5.350;2023-05-16T00:19:59;44.75;;;6.93;;
18752;SDS011;9505;50.882;5.350;2023-05-16T00:22:26;59.78;;;7.32;;
18752;SDS011;9505;50.882;5.350;2023-05-16T00:24:52;54.47;;;6.53;;
18752;SDS011;9505;50.882;5.350;2023-05-16T00:27:18;41.40;;;6.40;;
18752;SDS011;9505;50.882;5.350;2023-05-16T00:29:43;42.45;;;5.85;;
18752;SDS011;9505;50.882;5.350;2023-05-16T00:32:09;46.38;;;7.10;;
18752;SDS011;9505;50.882;5.350;2023-05-16T00:34:35;41.50;;;5.70;;
18752;SDS011;9505;50.882;5.350;2023-05-16T00:37:01;46.17;;;6.20;;
18752;SDS011;9505;50.882;5.350;2023-05-16T00:39:26;48.70;;;6.40;;
18752;SDS011;9505;50.882;5.350;2023-05-16T00:41:52;36.53;;;5.60;;
18752;SDS011;9505;50.882;5.350;2023-05-16T00:44:18;45.00;;;6.32;;
18752;SDS011;9505;50.882;5.350;2023-05-16T00:46:44;47.15;;;6.38;;
18752;SDS011;9505;50.882;5.350;2023-05-16T00:49:10;44.45;;;6.85;;
18752;SDS011;9505;50.882;5.350;2023-05-16T00:51:36;33.13;;;5.10;;
18752;SDS011;9505;50.882;5.350;2023-05-16T00:54:04;48.10;;;6.93;;
18752;SDS011;9505;50.882;5.350;2023-05-16T00:56:30;37.92;;;5.38;;
18752;SDS011;9505;50.882;5.350;2023-05-16T00:58:56;46.70;;;6.07;;
18752;SDS011;9505;50.882;5.350;2023-05-16T01:01:22;47.58;;;6.85;;
18752;SDS011;9505;50.882;5.350;2023-05-16T01:03:51;49.33;;;6.40;;
18752;SDS011;9505;50.882;5.350;2023-05-16T01:06:17;40.10;;;5.75;;
18752;SDS011;9505;50.882;5.350;2023-05-16T01:08:42;38.53;;;5.85;;
18752;SDS011;9505;50.882;5.350;2023-05-16T01:11:15;39.92;;;5.50;;
18752;SDS011;9505;50.882;5.350;2023-05-16T01:24:48;45.20;;;5.57;;
18752;SDS011;9505;50.882;5.350;2023-05-16T01:27:34;32.47;;;4.95;;
18752;SDS011;9505;50.882;5.350;2023-05-16T01:30:10;50.08;;;6.40;;
18752;SDS011;9505;50.882;5.350;2023-05-16T01:32:40;41.22;;;5.00;;
18752;SDS011;9505;50.882;5.350;2023-05-16T01:35:06;46.05;;;6.25;;
18752;SDS011;9505;50.882;5.350;2023-05-16T01:37:35;46.45;;;5.72;;
18752;SDS011;9505;50.882;5.350;2023-05-16T01:40:11;45.92;;;6.45;;
18752;SDS011;9505;50.882;5.350;2023-05-16T01:42:45;42.15;;;6.38;;
18752;SDS011;9505;50.882;5.350;2023-05-16T01:45:14;47.20;;;5.82;;
18752;SDS011;9505;50.882;5.350;2023-05-16T01:47:46;35.35;;;5.38;;
18752;SDS011;9505;50.882;5.350;2023-05-16T01:50:19;43.65;;;5.22;;
18752;SDS011;9505;50.882;5.350;2023-05-16T01:52:49;33.53;;;4.57;;
18752;SDS011;9505;50.882;5.350;2023-05-16T01:55:41;46.05;;;5.72;;
18752;SDS011;9505;50.882;5.350;2023-05-16T01:58:10;32.88;;;4.88;;
18752;SDS011;9505;50.882;5.350;2023-05-16T02:00:37;36.70;;;4.80;;
18752;SDS011;9505;50.882;5.350;2023-05-16T02:03:03;50.75;;;6.07;;
18752;SDS011;9505;50.882;5.350;2023-05-16T02:05:30;47.15;;;5.50;;
18752;SDS011;9505;50.882;5.350;2023-05-16T02:07:56;40.30;;;4.90;;
18752;SDS011;9505;50.882;5.350;2023-05-16T02:10:23;47.55;;;5.65;;
18752;SDS011;9505;50.882;5.350;2023-05-16T02:12:49;45.53;;;5.57;;
18752;SDS011;9505;50.882;5.350;2023-05-16T02:15:15;32.67;;;4.30;;
18752;SDS011;9505;50.882;5.350;2023-05-16T02:17:41;35.95;;;4.50;;
18752;SDS011;9505;50.882;5.350;2023-05-16T02:20:07;47.88;;;5.88;;
18752;SDS011;9505;50.882;5.350;2023-05-16T02:22:34;48.78;;;6.43;;
18752;SDS011;9505;50.882;5.350;2023-05-16T02:25:01;35.45;;;5.38;;
18752;SDS011;9505;50.882;5.350;2023-05-16T02:27:30;43.90;;;5.45;;
18752;SDS011;9505;50.882;5.350;2023-05-16T02:29:56;43.67;;;5.07;;
18752;SDS011;9505;50.882;5.350;2023-05-16T02:32:22;38.70;;;5.13;;
18752;SDS011;9505;50.882;5.350;2023-05-16T02:34:48;37.47;;;4.97;;
18752;SDS011;9505;50.882;5.350;2023-05-16T02:37:14;42.17;;;5.03;;
18752;SDS011;9505;50.882;5.350;2023-05-16T02:39:40;37.40;;;5.22;;
18752;SDS011;9505;50.882;5.350;2023-05-16T02:42:05;46.42;;;5.38;;
18752;SDS011;9505;50.882;5.350;2023-05-16T02:44:31;41.17;;;5.60;;
18752;SDS011;9505;50.882;5.350;2023-05-16T02:46:57;50.35;;;4.82;;
18752;SDS011;9505;50.882;5.350;2023-05-16T02:49:23;50.95;;;5.88;;
18752;SDS011;9505;50.882;5.350;2023-05-16T02:51:49;52.17;;;4.85;;
18752;SDS011;9505;50.882;5.350;2023-05-16T02:54:15;41.47;;;5.95;;
18752;SDS011;9505;50.882;5.350;2023-05-16T02:56:41;45.55;;;4.95;;
18752;SDS011;9505;50.882;5.350;2023-05-16T02:59:07;44.53;;;4.95;;
18752;SDS011;9505;50.882;5.350;2023-05-16T03:01:33;41.80;;;5.10;;
18752;SDS011;9505;50.882;5.350;2023-05-16T03:03:58;36.33;;;4.07;;
18752;SDS011;9505;50.882;5.350;2023-05-16T03:06:24;42.35;;;5.80;;
18752;SDS011;9505;50.882;5.350;2023-05-16T03:08:50;33.95;;;4.55;;
18752;SDS011;9505;50.882;5.350;2023-05-16T03:11:16;47.15;;;5.53;;
18752;SDS011;9505;50.882;5.350;2023-05-16T03:13:44;36.75;;;4.95;;
18752;SDS011;9505;50.882;5.350;2023-05-16T03:16:10;34.08;;;4.65;;
18752;SDS011;9505;50.882;5.350;2023-05-16T03:18:36;31.92;;;4.35;;
18752;SDS011;9505;50.882;5.350;2023-05-16T03:21:01;35.60;;;5.45;;
18752;SDS011;9505;50.882;5.350;2023-05-16T03:23:27;44.58;;;5.15;;
18752;SDS011;9505;50.882;5.350;2023-05-16T03:25:53;40.60;;;4.63;;
18752;SDS011;9505;50.882;5.350;2023-05-16T03:28:18;37.55;;;5.07;;
18752;SDS011;9505;50.882;5.350;2023-05-16T03:30:44;37.28;;;5.00;;
18752;SDS011;9505;50.882;5.350;2023-05-16T03:33:10;37.95;;;4.97;;
18752;SDS011;9505;50.882;5.350;2023-05-16T03:35:35;34.35;;;4.75;;
18752;SDS011;9505;50.882;5.350;2023-05-16T03:38:02;43.78;;;5.25;;
18752;SDS011;9505;50.882;5.350;2023-05-16T03:40:28;46.55;;;5.18;;
18752;SDS011;9505;50.882;5.350;2023-05-16T03:42:53;47.55;;;5.50;;
18752;SDS011;9505;50.882;5.350;2023-05-16T03:45:19;38.58;;;5.47;;
18752;SDS011;9505;50.882;5.350;2023-05-16T03:47:45;40.35;;;4.40;;
18752;SDS011;9505;50.882;5.350;2023-05-16T03:50:12;33.88;;;4.60;;
18752;SDS011;9505;50.882;5.350;2023-05-16T03:52:38;37.25;;;4.90;;
18752;SDS011;9505;50.882;5.350;2023-05-16T03:55:04;44.47;;;5.20;;
18752;SDS011;9505;50.882;5.350;2023-05-16T03:57:30;56.00;;;5.78;;
18752;SDS011;9505;50.882;5.350;2023-05-16T03:59:56;59.50;;;6.65;;
18752;SDS011;9505;50.882;5.350;2023-05-16T04:02:22;49.30;;;6.50;;
18752;SDS011;9505;50.882;5.350;2023-05-16T04:04:48;42.45;;;5.72;;
18752;SDS011;9505;50.882;5.350;2023-05-16T04:07:13;45.10;;;5.18;;
18752;SDS011;9505;50.882;5.350;2023-05-16T04:09:39;46.90;;;6.22;;
18752;SDS011;9505;50.882;5.350;2023-05-16T04:12:05;47.15;;;6.20;;
18752;SDS011;9505;50.882;5.350;2023-05-16T04:14:32;51.58;;;5.78;;
18752;SDS011;9505;50.882;5.350;2023-05-16T04:16:58;57.03;;;6.88;;
18752;SDS011;9505;50.882;5.350;2023-05-16T04:19:24;44.92;;;5.97;;
18752;SDS011;9505;50.882;5.350;2023-05-16T04:21:50;43.80;;;5.35;;
18752;SDS011;9505;50.882;5.350;2023-05-16T04:24:16;42.17;;;5.93;;
18752;SDS011;9505;50.882;5.350;2023-05-16T04:26:42;34.17;;;5.03;;
18752;SDS011;9505;50.882;5.350;2023-05-16T04:29:08;39.13;;;5.10;;
18752;SDS011;9505;50.882;5.350;2023-05-16T04:31:34;37.92;;;5.07;;
18752;SDS011;9505;50.882;5.350;2023-05-16T04:34:01;43.00;;;5.25;;
18752;SDS011;9505;50.882;5.350;2023-05-16T04:36:26;48.78;;;5.28;;
18752;SDS011;9505;50.882;5.350;2023-05-16T04:38:54;38.30;;;5.22;;
18752;SDS011;9505;50.882;5.350;2023-05-16T04:41:20;36.55;;;4.68;;
18752;SDS011;9505;50.882;5.350;2023-05-16T04:43:47;41.90;;;5.80;;
18752;SDS011;9505;50.882;5.350;2023-05-16T04:46:12;34.90;;;5.07;;
18752;SDS011;9505;50.882;5.350;2023-05-16T04:48:39;34.10;;;4.53;;
18752;SDS011;9505;50.882;5.350;2023-05-16T04:51:05;45.40;;;6.75;;
18752;SDS011;9505;50.882;5.350;2023-05-16T04:53:31;49.90;;;6.10;;
18752;SDS011;9505;50.882;5.350;2023-05-16T04:55:57;48.72;;;4.93;;
18752;SDS011;9505;50.882;5.350;2023-05-16T04:58:23;39.03;;;4.85;;
18752;SDS011;9505;50.882;5.350;2023-05-16T05:00:50;37.28;;;4.57;;
18752;SDS011;9505;50.882;5.350;2023-05-16T05:03:16;38.88;;;5.40;;
18752;SDS011;9505;50.882;5.350;2023-05-16T05:05:42;41.20;;;5.65;;
18752;SDS011;9505;50.882;5.350;2023-05-16T05:08:07;45.83;;;6.03;;
18752;SDS011;9505;50.882;5.350;2023-05-16T05:10:33;46.03;;;5.88;;
18752;SDS011;9505;50.882;5.350;2023-05-16T05:12:59;55.92;;;6.55;;
18752;SDS011;9505;50.882;5.350;2023-05-16T05:15:25;48.90;;;6.60;;
18752;SDS011;9505;50.882;5.350;2023-05-16T05:17:51;41.53;;;5.20;;
18752;SDS011;9505;50.882;5.350;2023-05-16T05:20:17;36.35;;;5.10;;
18752;SDS011;9505;50.882;5.350;2023-05-16T05:22:42;41.08;;;5.45;;
18752;SDS011;9505;50.882;5.350;2023-05-16T05:25:08;47.67;;;6.10;;
18752;SDS011;9505;50.882;5.350;2023-05-16T05:27:34;48.42;;;5.90;;
18752;SDS011;9505;50.882;5.350;2023-05-16T05:29:59;45.00;;;6.32;;
18752;SDS011;9505;50.882;5.350;2023-05-16T05:32:26;42.78;;;6.05;;
18752;SDS011;9505;50.882;5.350;2023-05-16T05:34:51;107.18;;;12.93;;
18752;SDS011;9505;50.882;5.350;2023-05-16T05:37:17;45.10;;;5.80;;
18752;SDS011;9505;50.882;5.350;2023-05-16T05:39:43;36.30;;;4.88;;
18752;SDS011;9505;50.882;5.350;2023-05-16T05:42:09;40.30;;;4.82;;
18752;SDS011;9505;50.882;5.350;2023-05-16T05:44:36;38.10;;;5.63;;
18752;SDS011;9505;50.882;5.350;2023-05-16T05:47:02;35.72;;;5.65;;
18752;SDS011;9505;50.882;5.350;2023-05-16T05:49:30;39.83;;;5.53;;
18752;SDS011;9505;50.882;5.350;2023-05-16T05:51:57;44.70;;;5.53;;
18752;SDS011;9505;50.882;5.350;2023-05-16T05:54:22;37.95;;;4.38;;
18752;SDS011;9505;50.882;5.350;2023-05-16T05:56:48;37.05;;;4.60;;
18752;SDS011;9505;50.882;5.350;2023-05-16T05:59:14;22.75;;;3.45;;
18752;SDS011;9505;50.882;5.350;2023-05-16T06:01:40;35.70;;;4.45;;
18752;SDS011;9505;50.882;5.350;2023-05-16T06:04:07;43.20;;;5.30;;
18752;SDS011;9505;50.882;5.350;2023-05-16T06:06:33;31.92;;;4.32;;
18752;SDS011;9505;50.882;5.350;2023-05-16T06:08:59;27.85;;;4.18;;
18752;SDS011;9505;50.882;5.350;2023-05-16T06:11:24;26.70;;;4.03;;
18752;SDS011;9505;50.882;5.350;2023-05-16T06:13:51;32.03;;;4.32;;
18752;SDS011;9505;50.882;5.350;2023-05-16T06:16:16;35.35;;;5.00;;
18752;SDS011;9505;50.882;5.350;2023-05-16T06:18:42;32.83;;;4.55;;
18752;SDS011;9505;50.882;5.350;2023-05-16T06:21:08;26.92;;;4.07;;
18752;SDS011;9505;50.882;5.350;2023-05-16T06:23:34;39.83;;;5.13;;
18752;SDS011;9505;50.882;5.350;2023-05-16T06:26:00;31.75;;;4.07;;
18752;SDS011;9505;50.882;5.350;2023-05-16T06:28:27;29.27;;;3.85;;
18752;SDS011;9505;50.882;5.350;2023-05-16T06:30:53;35.72;;;4.20;;
18752;SDS011;9505;50.882;5.350;2023-05-16T06:33:19;28.00;;;4.20;;
18752;SDS011;9505;50.882;5.350;2023-05-16T06:35:45;33.25;;;4.07;;
18752;SDS011;9505;50.882;5.350;2023-05-16T06:38:12;37.95;;;4.97;;
18752;SDS011;9505;50.882;5.350;2023-05-16T06:40:38;41.45;;;5.22;;
18752;SDS011;9505;50.882;5.350;2023-05-16T06:43:04;32.80;;;4.43;;
18752;SDS011;9505;50.882;5.350;2023-05-16T06:45:30;29.33;;;4.30;;
18752;SDS011;9505;50.882;5.350;2023-05-16T06:47:55;42.13;;;4.82;;
18752;SDS011;9505;50.882;5.350;2023-05-16T06:50:21;31.48;;;3.78;;
18752;SDS011;9505;50.882;5.350;2023-05-16T06:52:47;32.78;;;4.43;;
18752;SDS011;9505;50.882;5.350;2023-05-16T06:55:12;20.20;;;3.17;;
18752;SDS011;9505;50.882;5.350;2023-05-16T06:57:38;32.40;;;4.28;;
18752;SDS011;9505;50.882;5.350;2023-05-16T07:00:04;32.10;;;4.95;;
18752;SDS011;9505;50.882;5.350;2023-05-16T07:02:31;29.70;;;4.07;;
18752;SDS011;9505;50.882;5.350;2023-05-16T07:04:56;28.17;;;3.88;;
18752;SDS011;9505;50.882;5.350;2023-05-16T07:07:22;35.40;;;4.38;;
18752;SDS011;9505;50.882;5.350;2023-05-16T07:09:47;33.35;;;4.65;;
18752;SDS011;9505;50.882;5.350;2023-05-16T07:12:13;36.40;;;4.93;;
18752;SDS011;9505;50.882;5.350;2023-05-16T07:14:39;33.92;;;4.07;;
18752;SDS011;9505;50.882;5.350;2023-05-16T07:17:05;35.88;;;4.75;;
18752;SDS011;9505;50.882;5.350;2023-05-16T07:19:31;36.83;;;4.50;;
18752;SDS011;9505;50.882;5.350;2023-05-16T07:21:57;36.25;;;4.55;;
18752;SDS011;9505;50.882;5.350;2023-05-16T07:24:22;47.97;;;5.13;;
18752;SDS011;9505;50.882;5.350;2023-05-16T07:26:48;39.20;;;4.95;;
18752;SDS011;9505;50.882;5.350;2023-05-16T07:29:14;37.83;;;4.45;;
18752;SDS011;9505;50.882;5.350;2023-05-16T07:31:39;41.33;;;4.22;;
18752;SDS011;9505;50.882;5.350;2023-05-16T07:34:05;35.35;;;4.28;;
18752;SDS011;9505;50.882;5.350;2023-05-16T07:36:31;35.28;;;4.22;;
18752;SDS011;9505;50.882;5.350;2023-05-16T07:38:57;32.50;;;3.90;;
18752;SDS011;9505;50.882;5.350;2023-05-16T07:41:23;33.88;;;4.35;;
18752;SDS011;9505;50.882;5.350;2023-05-16T07:43:49;29.85;;;3.53;;
18752;SDS011;9505;50.882;5.350;2023-05-16T07:46:15;49.15;;;5.38;;
18752;SDS011;9505;50.882;5.350;2023-05-16T07:48:40;33.83;;;4.28;;
18752;SDS011;9505;50.882;5.350;2023-05-16T07:51:06;37.38;;;4.28;;
18752;SDS011;9505;50.882;5.350;2023-05-16T07:53:32;39.63;;;4.80;;
18752;SDS011;9505;50.882;5.350;2023-05-16T07:55:58;38.78;;;4.15;;
18752;SDS011;9505;50.882;5.350;2023-05-16T07:58:24;42.55;;;4.43;;
18752;SDS011;9505;50.882;5.350;2023-05-16T08:00:50;39.40;;;3.95;;
18752;SDS011;9505;50.882;5.350;2023-05-16T08:03:15;38.47;;;4.18;;
18752;SDS011;9505;50.882;5.350;2023-05-16T08:05:41;33.63;;;4.82;;
18752;SDS011;9505;50.882;5.350;2023-05-16T08:08:07;50.45;;;4.95;;
18752;SDS011;9505;50.882;5.350;2023-05-16T08:10:32;41.88;;;4.03;;
18752;SDS011;9505;50.882;5.350;2023-05-16T08:12:58;37.30;;;4.10;;
18752;SDS011;9505;50.882;5.350;2023-05-16T08:15:25;38.83;;;4.82;;
18752;SDS011;9505;50.882;5.350;2023-05-16T08:17:53;36.90;;;4.15;;
18752;SDS011;9505;50.882;5.350;2023-05-16T08:20:21;25.88;;;3.22;;
18752;SDS011;9505;50.882;5.350;2023-05-16T08:22:46;34.60;;;4.15;;
18752;SDS011;9505;50.882;5.350;2023-05-16T08:25:12;39.10;;;4.10;;
18752;SDS011;9505;50.882;5.350;2023-05-16T08:27:38;40.80;;;4.75;;
18752;SDS011;9505;50.882;5.350;2023-05-16T08:30:03;40.60;;;4.15;;
18752;SDS011;9505;50.882;5.350;2023-05-16T08:32:30;43.08;;;4.25;;
18752;SDS011;9505;50.882;5.350;2023-05-16T08:34:55;39.78;;;4.10;;
18752;SDS011;9505;50.882;5.350;2023-05-16T08:37:21;48.58;;;5.00;;
18752;SDS011;9505;50.882;5.350;2023-05-16T08:39:46;36.90;;;4.10;;
18752;SDS011;9505;50.882;5.350;2023-05-16T08:42:12;45.63;;;5.15;;
18752;SDS011;9505;50.882;5.350;2023-05-16T08:44:38;49.08;;;5.80;;
18752;SDS011;9505;50.882;5.350;2023-05-16T08:47:24;36.60;;;4.10;;
18752;SDS011;9505;50.882;5.350;2023-05-16T08:49:51;27.50;;;3.40;;
18752;SDS011;9505;50.882;5.350;2023-05-16T08:52:21;38.92;;;4.10;;
18752;SDS011;9505;50.882;5.350;2023-05-16T08:54:52;36.20;;;4.10;;
18752;SDS011;9505;50.882;5.350;2023-05-16T08:57:18;31.27;;;3.75;;
18752;SDS011;9505;50.882;5.350;2023-05-16T08:59:45;27.08;;;3.72;;
18752;SDS011;9505;50.882;5.350;2023-05-16T09:02:11;47.20;;;4.90;;
18752;SDS011;9505;50.882;5.350;2023-05-16T09:04:37;29.52;;;3.30;;
18752;SDS011;9505;50.882;5.350;2023-05-16T09:07:05;32.95;;;3.75;;
18752;SDS011;9505;50.882;5.350;2023-05-16T09:09:30;28.25;;;3.25;;
18752;SDS011;9505;50.882;5.350;2023-05-16T09:11:56;33.40;;;4.25;;
18752;SDS011;9505;50.882;5.350;2023-05-16T09:14:22;31.45;;;3.78;;
18752;SDS011;9505;50.882;5.350;2023-05-16T09:17:01;29.88;;;3.53;;
18752;SDS011;9505;50.882;5.350;2023-05-16T09:19:38;33.15;;;3.90;;
18752;SDS011;9505;50.882;5.350;2023-05-16T09:22:05;27.05;;;3.22;;
18752;SDS011;9505;50.882;5.350;2023-05-16T09:24:35;42.20;;;4.45;;
18752;SDS011;9505;50.882;5.350;2023-05-16T09:27:14;35.83;;;3.90;;
18752;SDS011;9505;50.882;5.350;2023-05-16T09:29:43;31.80;;;3.78;;
18752;SDS011;9505;50.882;5.350;2023-05-16T09:32:14;30.23;;;3.50;;
18752;SDS011;9505;50.882;5.350;2023-05-16T09:34:47;31.33;;;3.38;;
18752;SDS011;9505;50.882;5.350;2023-05-16T09:37:14;25.27;;;3.17;;
18752;SDS011;9505;50.882;5.350;2023-05-16T09:39:47;26.40;;;3.03;;
18752;SDS011;9505;50.882;5.350;2023-05-16T09:42:14;28.08;;;3.15;;
18752;SDS011;9505;50.882;5.350;2023-05-16T09:44:44;29.58;;;3.58;;
18752;SDS011;9505;50.882;5.350;2023-05-16T09:47:14;27.05;;;3.20;;
18752;SDS011;9505;50.882;5.350;2023-05-16T09:49:45;33.75;;;4.28;;
18752;SDS011;9505;50.882;5.350;2023-05-16T09:52:12;30.02;;;3.45;;
18752;SDS011;9505;50.882;5.350;2023-05-16T09:54:39;27.30;;;3.30;;
18752;SDS011;9505;50.882;5.350;2023-05-16T09:57:05;31.90;;;3.60;;
18752;SDS011;9505;50.882;5.350;2023-05-16T09:59:34;39.92;;;4.55;;
18752;SDS011;9505;50.882;5.350;2023-05-16T10:02:04;29.33;;;3.40;;
18752;SDS011;9505;50.882;5.350;2023-05-16T10:04:32;25.33;;;3.03;;
18752;SDS011;9505;50.882;5.350;2023-05-16T10:07:01;31.80;;;3.88;;
18752;SDS011;9505;50.882;5.350;2023-05-16T10:09:33;36.78;;;4.22;;
18752;SDS011;9505;50.882;5.350;2023-05-16T10:12:01;27.73;;;3.58;;
18752;SDS011;9505;50.882;5.350;2023-05-16T10:14:29;29.95;;;3.72;;
18752;SDS011;9505;50.882;5.350;2023-05-16T10:16:58;34.83;;;4.22;;
18752;SDS011;9505;50.882;5.350;2023-05-16T10:19:25;32.50;;;3.67;;
18752;SDS011;9505;50.882;5.350;2023-05-16T10:21:52;41.17;;;4.75;;
18752;SDS011;9505;50.882;5.350;2023-05-16T10:24:25;31.70;;;3.40;;
18752;SDS011;9505;50.882;5.350;2023-05-16T10:26:58;28.98;;;3.47;;
18752;SDS011;9505;50.882;5.350;2023-05-16T10:29:24;28.02;;;3.38;;
18752;SDS011;9505;50.882;5.350;2023-05-16T10:31:50;28.45;;;3.22;;
18752;SDS011;9505;50.882;5.350;2023-05-16T10:34:16;26.10;;;3.45;;
18752;SDS011;9505;50.882;5.350;2023-05-16T10:36:43;12.27;;;1.60;;
18752;SDS011;9505;50.882;5.350;2023-05-16T10:39:09;20.38;;;2.45;;
18752;SDS011;9505;50.882;5.350;2023-05-16T10:41:36;28.77;;;3.38;;
18752;SDS011;9505;50.882;5.350;2023-05-16T10:44:02;28.02;;;3.35;;
18752;SDS011;9505;50.882;5.350;2023-05-16T10:46:28;29.80;;;3.35;;
18752;SDS011;9505;50.882;5.350;2023-05-16T10:48:55;31.08;;;3.67;;
18752;SDS011;9505;50.882;5.350;2023-05-16T10:53:50;28.10;;;3.80;;
18752;SDS011;9505;50.882;5.350;2023-05-16T10:56:21;33.13;;;3.25;;
18752;SDS011;9505;50.882;5.350;2023-05-16T10:58:52;21.05;;;2.75;;
18752;SDS011;9505;50.882;5.350;2023-05-16T11:01:21;28.83;;;3.42;;
18752;SDS011;9505;50.882;5.350;2023-05-16T11:11:43;26.75;;;3.42;;
18752;SDS011;9505;50.882;5.350;2023-05-16T11:14:23;27.60;;;3.45;;
18752;SDS011;9505;50.882;5.350;2023-05-16T11:17:18;33.60;;;3.60;;
18752;SDS011;9505;50.882;5.350;2023-05-16T11:19:54;22.63;;;2.95;;
18752;SDS011;9505;50.882;5.350;2023-05-16T11:22:32;26.42;;;3.40;;
18752;SDS011;9505;50.882;5.350;2023-05-16T11:25:05;31.08;;;3.28;;
18752;SDS011;9505;50.882;5.350;2023-05-16T11:30:19;32.35;;;3.53;;
18752;SDS011;9505;50.882;5.350;2023-05-16T11:32:46;31.17;;;3.53;;
18752;SDS011;9505;50.882;5.350;2023-05-16T11:35:13;26.60;;;3.42;;
18752;SDS011;9505;50.882;5.350;2023-05-16T11:37:41;26.88;;;3.08;;
18752;SDS011;9505;50.882;5.350;2023-05-16T11:40:08;35.97;;;4.13;;
18752;SDS011;9505;50.882;5.350;2023-05-16T11:42:39;26.48;;;3.33;;
18752;SDS011;9505;50.882;5.350;2023-05-16T11:45:06;34.58;;;3.88;;
18752;SDS011;9505;50.882;5.350;2023-05-16T11:47:37;32.47;;;3.92;;
18752;SDS011;9505;50.882;5.350;2023-05-16T11:50:14;30.23;;;3.33;;
18752;SDS011;9505;50.882;5.350;2023-05-16T11:52:53;31.13;;;3.30;;
18752;SDS011;9505;50.882;5.350;2023-05-16T11:55:22;31.58;;;3.88;;
18752;SDS011;9505;50.882;5.350;2023-05-16T11:57:50;24.40;;;3.10;;
18752;SDS011;9505;50.882;5.350;2023-05-16T12:00:17;28.08;;;3.47;;
18752;SDS011;9505;50.882;5.350;2023-05-16T12:02:48;23.15;;;2.97;;
18752;SDS011;9505;50.882;5.350;2023-05-16T12:05:15;27.92;;;3.50;;
18752;SDS011;9505;50.882;5.350;2023-05-16T12:07:42;30.33;;;3.50;;
18752;SDS011;9505;50.882;5.350;2023-05-16T12:10:09;29.77;;;3.50;;
18752;SDS011;9505;50.882;5.350;2023-05-16T12:12:37;25.38;;;2.92;;
18752;SDS011;9505;50.882;5.350;2023-05-16T12:15:04;29.15;;;3.58;;
18752;SDS011;9505;50.882;5.350;2023-05-16T12:17:35;25.50;;;3.33;;
18752;SDS011;9505;50.882;5.350;2023-05-16T12:20:02;30.83;;;3.42;;
18752;SDS011;9505;50.882;5.350;2023-05-16T12:22:30;25.45;;;3.15;;
18752;SDS011;9505;50.882;5.350;2023-05-16T12:24:58;27.02;;;3.53;;
18752;SDS011;9505;50.882;5.350;2023-05-16T12:27:24;27.73;;;3.35;;
18752;SDS011;9505;50.882;5.350;2023-05-16T12:29:51;22.00;;;2.78;;
18752;SDS011;9505;50.882;5.350;2023-05-16T12:32:17;36.17;;;4.30;;
18752;SDS011;9505;50.882;5.350;2023-05-16T12:34:49;28.25;;;3.60;;
18752;SDS011;9505;50.882;5.350;2023-05-16T12:37:20;31.67;;;3.60;;
18752;SDS011;9505;50.882;5.350;2023-05-16T12:39:46;23.85;;;3.17;;
18752;SDS011;9505;50.882;5.350;2023-05-16T12:42:12;26.50;;;3.35;;
18752;SDS011;9505;50.882;5.350;2023-05-16T12:44:38;24.55;;;3.13;;
18752;SDS011;9505;50.882;5.350;2023-05-16T12:47:10;27.38;;;3.45;;
18752;SDS011;9505;50.882;5.350;2023-05-16T12:49:42;29.00;;;3.47;;
18752;SDS011;9505;50.882;5.350;2023-05-16T12:52:18;33.05;;;3.92;;
18752;SDS011;9505;50.882;5.350;2023-05-16T12:54:45;35.47;;;4.10;;
18752;SDS011;9505;50.882;5.350;2023-05-16T12:57:12;28.02;;;3.58;;
18752;SDS011;9505;50.882;5.350;2023-05-16T12:59:38;35.45;;;4.18;;
18752;SDS011;9505;50.882;5.350;2023-05-16T13:02:03;25.80;;;3.55;;
18752;SDS011;9505;50.882;5.350;2023-05-16T13:04:29;39.65;;;4.85;;
18752;SDS011;9505;50.882;5.350;2023-05-16T13:06:55;30.42;;;3.47;;
18752;SDS011;9505;50.882;5.350;2023-05-16T13:09:21;28.15;;;3.80;;
18752;SDS011;9505;50.882;5.350;2023-05-16T13:11:47;28.95;;;3.35;;
18752;SDS011;9505;50.882;5.350;2023-05-16T13:14:14;33.05;;;4.05;;
18752;SDS011;9505;50.882;5.350;2023-05-16T13:16:41;20.67;;;2.88;;
18752;SDS011;9505;50.882;5.350;2023-05-16T13:19:07;29.52;;;3.53;;
18752;SDS011;9505;50.882;5.350;2023-05-16T13:21:33;31.42;;;4.18;;
18752;SDS011;9505;50.882;5.350;2023-05-16T13:23:59;31.08;;;3.72;;
18752;SDS011;9505;50.882;5.350;2023-05-16T13:26:25;22.40;;;2.97;;
18752;SDS011;9505;50.882;5.350;2023-05-16T13:28:51;31.48;;;3.72;;
18752;SDS011;9505;50.882;5.350;2023-05-16T13:31:18;34.85;;;4.28;;
18752;SDS011;9505;50.882;5.350;2023-05-16T13:33:45;36.90;;;4.05;;
18752;SDS011;9505;50.882;5.350;2023-05-16T13:36:11;21.38;;;2.70;;
18752;SDS011;9505;50.882;5.350;2023-05-16T13:38:37;30.50;;;3.65;;
18752;SDS011;9505;50.882;5.350;2023-05-16T13:41:02;34.78;;;4.13;;
18752;SDS011;9505;50.882;5.350;2023-05-16T13:43:28;34.35;;;4.00;;
18752;SDS011;9505;50.882;5.350;2023-05-16T13:45:54;35.55;;;4.32;;
18752;SDS011;9505;50.882;5.350;2023-05-16T13:48:20;27.10;;;3.45;;
18752;SDS011;9505;50.882;5.350;2023-05-16T13:50:46;24.13;;;3.05;;
18752;SDS011;9505;50.882;5.350;2023-05-16T13:53:11;37.97;;;4.55;;
18752;SDS011;9505;50.882;5.350;2023-05-16T13:55:37;22.75;;;3.10;;
18752;SDS011;9505;50.882;5.350;2023-05-16T13:58:02;33.28;;;3.97;;
18752;SDS011;9505;50.882;5.350;2023-05-16T14:00:28;29.85;;;3.58;;
18752;SDS011;9505;50.882;5.350;2023-05-16T14:02:54;35.38;;;4.38;;
18752;SDS011;9505;50.882;5.350;2023-05-16T14:05:20;38.95;;;4.70;;
18752;SDS011;9505;50.882;5.350;2023-05-16T14:07:46;33.90;;;3.90;;
18752;SDS011;9505;50.882;5.350;2023-05-16T14:10:12;31.50;;;4.07;;
18752;SDS011;9505;50.882;5.350;2023-05-16T14:12:37;26.45;;;3.17;;
18752;SDS011;9505;50.882;5.350;2023-05-16T14:15:04;37.17;;;4.50;;
18752;SDS011;9505;50.882;5.350;2023-05-16T14:17:31;29.05;;;4.25;;
18752;SDS011;9505;50.882;5.350;2023-05-16T14:19:56;21.10;;;2.97;;
18752;SDS011;9505;50.882;5.350;2023-05-16T14:22:22;32.88;;;4.00;;
18752;SDS011;9505;50.882;5.350;2023-05-16T14:24:48;20.55;;;2.67;;
18752;SDS011;9505;50.882;5.350;2023-05-16T14:27:13;35.03;;;4.10;;
18752;SDS011;9505;50.882;5.350;2023-05-16T14:29:40;33.75;;;4.40;;
18752;SDS011;9505;50.882;5.350;2023-05-16T14:32:06;35.90;;;3.95;;
18752;SDS011;9505;50.882;5.350;2023-05-16T14:34:35;31.52;;;4.20;;
18752;SDS011;9505;50.882;5.350;2023-05-16T14:37:00;29.33;;;3.78;;
18752;SDS011;9505;50.882;5.350;2023-05-16T14:39:26;36.40;;;4.57;;
18752;SDS011;9505;50.882;5.350;2023-05-16T14:41:51;44.45;;;5.35;;
18752;SDS011;9505;50.882;5.350;2023-05-16T14:44:17;26.88;;;3.47;;
18752;SDS011;9505;50.882;5.350;2023-05-16T14:46:45;26.45;;;3.30;;
18752;SDS011;9505;50.882;5.350;2023-05-16T14:49:11;29.38;;;3.55;;
18752;SDS011;9505;50.882;5.350;2023-05-16T14:51:37;26.70;;;3.47;;
18752;SDS011;9505;50.882;5.350;2023-05-16T14:54:02;29.10;;;3.97;;
18752;SDS011;9505;50.882;5.350;2023-05-16T14:56:29;35.53;;;4.65;;
18752;SDS011;9505;50.882;5.350;2023-05-16T14:58:55;25.10;;;3.35;;
18752;SDS011;9505;50.882;5.350;2023-05-16T15:01:21;24.10;;;3.55;;
18752;SDS011;9505;50.882;5.350;2023-05-16T15:03:47;35.38;;;4.47;;
18752;SDS011;9505;50.882;5.350;2023-05-16T15:06:14;33.97;;;4.32;;
18752;SDS011;9505;50.882;5.350;2023-05-16T15:08:40;26.77;;;3.92;;
18752;SDS011;9505;50.882;5.350;2023-05-16T15:11:05;30.55;;;4.00;;